createdAt,value
2018-04-22T00:00:38.913Z,13.90
2018-04-22T00:03:06.323Z,13.80
2018-04-22T00:05:33.665Z,13.57
2018-04-22T00:08:06.946Z,14.17
2018-04-22T00:10:34.331Z,13.13
2018-04-22T00:13:06.788Z,13.40
2018-04-22T00:15:34.138Z,13.20
2018-04-22T00:18:01.536Z,14.70
2018-04-22T00:20:28.889Z,14.20
2018-04-22T00:22:56.255Z,13.13
2018-04-22T00:25:23.644Z,13.80
2018-04-22T00:27:51.024Z,12.40
2018-04-22T00:30:18.378Z,13.13
2018-04-22T00:32:45.746Z,14.00
2018-04-22T00:35:13.096Z,12.90
2018-04-22T00:37:40.490Z,12.90
2018-04-22T00:40:07.844Z,12.23
2018-04-22T00:42:35.223Z,12.80
2018-04-22T00:45:02.566Z,13.47
2018-04-22T00:47:29.942Z,13.53
2018-04-22T00:49:57.326Z,14.60
2018-04-22T00:52:24.727Z,15.93
2018-04-22T00:54:52.090Z,15.47
2018-04-22T00:57:19.462Z,16.00
2018-04-22T00:59:46.808Z,16.53
2018-04-22T01:02:14.177Z,16.10
2018-04-22T01:04:41.534Z,15.97
2018-04-22T01:07:08.897Z,17.43
2018-04-22T01:09:36.251Z,19.20
2018-04-22T01:12:03.623Z,17.90
2018-04-22T01:14:30.971Z,17.13
2018-04-22T01:16:58.372Z,19.03
2018-04-22T01:19:25.720Z,18.50
2018-04-22T01:21:53.126Z,18.10
2018-04-22T01:24:20.478Z,17.40
2018-04-22T01:26:47.851Z,17.73
2018-04-22T01:29:15.204Z,16.47
2018-04-22T01:31:42.616Z,18.63
2018-04-22T01:34:09.963Z,15.77
2018-04-22T01:36:37.305Z,16.73
2018-04-22T01:39:05.419Z,15.70
2018-04-22T01:41:32.808Z,17.67
2018-04-22T01:44:00.187Z,18.20
2018-04-22T01:46:27.559Z,18.27
2018-04-22T01:48:54.939Z,14.90
2018-04-22T01:51:22.288Z,16.53
2018-04-22T01:53:49.694Z,16.97
2018-04-22T01:56:17.062Z,16.13
2018-04-22T01:58:44.431Z,16.43
2018-04-22T02:01:11.774Z,18.23
2018-04-22T02:03:39.134Z,16.97
2018-04-22T02:06:06.493Z,14.83
2018-04-22T02:08:33.858Z,17.33
2018-04-22T02:11:01.246Z,19.37
2018-04-22T02:13:28.617Z,17.10
2018-04-22T02:15:56.042Z,17.00
2018-04-22T02:18:23.436Z,19.00
2018-04-22T02:20:50.802Z,17.03
2018-04-22T02:23:18.179Z,17.93
2018-04-22T02:25:45.526Z,17.87
2018-04-22T02:28:12.900Z,18.10
2018-04-22T02:30:40.244Z,17.97
2018-04-22T02:33:07.624Z,17.50
2018-04-22T02:35:34.993Z,16.63
2018-04-22T02:38:02.359Z,18.33
2018-04-22T02:40:29.740Z,17.27
2018-04-22T02:42:57.122Z,19.83
2018-04-22T02:45:24.550Z,18.77
2018-04-22T02:47:51.920Z,17.93
2018-04-22T02:50:19.266Z,18.03
2018-04-22T02:52:46.628Z,20.30
2018-04-22T02:55:14.007Z,17.93
2018-04-22T02:57:41.390Z,17.40
2018-04-22T03:00:08.733Z,19.27
2018-04-22T03:02:36.082Z,18.97
2018-04-22T03:05:03.490Z,18.80
2018-04-22T03:07:30.832Z,19.00
2018-04-22T03:09:58.206Z,18.80
2018-04-22T03:12:25.592Z,18.57
2018-04-22T03:14:52.992Z,19.67
2018-04-22T03:17:20.329Z,20.37
2018-04-22T03:19:47.717Z,19.20
2018-04-22T03:22:15.102Z,18.10
2018-04-22T03:24:42.489Z,18.47
2018-04-22T03:27:09.846Z,20.63
2018-04-22T03:29:37.221Z,17.83
2018-04-22T03:32:04.577Z,18.07
2018-04-22T03:34:31.999Z,18.10
2018-04-22T03:36:59.353Z,18.53
2018-04-22T03:39:26.725Z,15.97
2018-04-22T03:41:54.101Z,17.60
2018-04-22T03:44:21.505Z,17.30
2018-04-22T03:46:48.906Z,18.77
2018-04-22T03:49:16.285Z,16.90
2018-04-22T03:51:43.650Z,18.43
2018-04-22T03:54:11.025Z,18.03
2018-04-22T03:56:38.372Z,18.10
2018-04-22T03:59:05.734Z,19.57
2018-04-22T04:01:33.087Z,19.53
2018-04-22T04:04:00.509Z,20.10
2018-04-22T04:06:27.858Z,18.20
2018-04-22T04:08:55.247Z,18.50
2018-04-22T04:11:22.617Z,17.80
2018-04-22T04:13:50.002Z,17.87
2018-04-22T04:16:17.380Z,17.47
2018-04-22T04:18:59.449Z,16.30
2018-04-22T04:21:32.709Z,15.90
2018-04-22T04:24:15.001Z,15.10
2018-04-22T04:26:48.150Z,15.13
2018-04-22T04:29:15.560Z,14.60
2018-04-22T04:31:42.940Z,15.30
2018-04-22T04:34:10.309Z,16.17
2018-04-22T04:36:37.736Z,16.37
2018-04-22T04:39:05.094Z,16.90
2018-04-22T04:41:32.461Z,19.90
2018-04-22T04:43:59.802Z,15.63
2018-04-22T04:46:27.180Z,17.83
2018-04-22T04:48:54.523Z,17.20
2018-04-22T04:51:21.909Z,16.97
2018-04-22T04:53:49.269Z,17.10
2018-04-22T04:56:16.659Z,15.90
2018-04-22T04:58:44.016Z,16.33
2018-04-22T05:01:11.406Z,17.13
2018-04-22T05:03:38.747Z,19.13
2018-04-22T05:06:06.110Z,18.90
2018-04-22T05:08:33.470Z,16.97
2018-04-22T05:11:00.842Z,16.47
2018-04-22T05:13:28.191Z,16.73
2018-04-22T05:15:55.568Z,15.50
2018-04-22T05:18:22.935Z,15.57
2018-04-22T05:20:50.306Z,15.90
2018-04-22T05:23:17.665Z,14.77
2018-04-22T05:25:45.044Z,15.83
2018-04-22T05:28:12.405Z,16.73
2018-04-22T05:30:39.780Z,15.27
2018-04-22T05:33:07.164Z,17.43
2018-04-22T05:35:34.532Z,17.40
2018-04-22T05:38:01.888Z,17.67
2018-04-22T05:40:29.265Z,15.93
2018-04-22T05:42:56.604Z,15.90
2018-04-22T05:45:23.959Z,16.40
2018-04-22T05:47:51.325Z,17.00
2018-04-22T05:50:18.697Z,16.70
2018-04-22T05:52:46.074Z,17.67
2018-04-22T05:55:13.442Z,17.10
2018-04-22T05:57:40.811Z,17.13
2018-04-22T06:00:08.159Z,23.27
2018-04-22T06:02:35.561Z,45.10
2018-04-22T06:05:02.910Z,35.03
2018-04-22T06:07:30.290Z,41.30
2018-04-22T06:09:57.665Z,19.33
2018-04-22T06:12:25.037Z,18.20
2018-04-22T06:14:52.389Z,18.10
2018-04-22T06:17:19.764Z,18.00
2018-04-22T06:19:47.146Z,16.87
2018-04-22T06:22:14.531Z,18.40
2018-04-22T06:24:41.894Z,18.87
2018-04-22T06:27:09.292Z,19.07
2018-04-22T06:29:36.644Z,19.47
2018-04-22T06:32:04.004Z,20.60
2018-04-22T06:34:31.358Z,19.93
2018-04-22T06:36:58.738Z,20.67
2018-04-22T06:39:26.090Z,21.73
2018-04-22T06:41:53.462Z,19.17
2018-04-22T06:44:20.834Z,20.30
2018-04-22T06:46:48.223Z,19.97
2018-04-22T06:49:15.572Z,21.07
2018-04-22T06:51:42.937Z,18.57
2018-04-22T06:54:10.290Z,19.77
2018-04-22T06:56:37.653Z,17.80
2018-04-22T06:59:04.997Z,19.00
2018-04-22T07:01:32.378Z,19.90
2018-04-22T07:04:00.014Z,18.73
2018-04-22T07:06:27.384Z,19.93
2018-04-22T07:08:54.728Z,18.63
2018-04-22T07:11:22.127Z,20.47
2018-04-22T07:13:49.479Z,19.40
2018-04-22T07:16:16.837Z,17.00
2018-04-22T07:18:44.208Z,19.53
2018-04-22T07:21:11.561Z,23.40
2018-04-22T07:23:38.931Z,39.93
2018-04-22T07:26:06.274Z,28.30
2018-04-22T07:28:33.655Z,20.40
2018-04-22T07:31:00.996Z,21.07
2018-04-22T07:33:28.382Z,17.53
2018-04-22T07:35:55.722Z,17.67
2018-04-22T07:38:23.097Z,15.87
2018-04-22T07:40:50.448Z,18.13
2018-04-22T07:43:17.875Z,18.60
2018-04-22T07:45:45.274Z,18.40
2018-04-22T07:48:12.667Z,16.47
2018-04-22T07:50:40.030Z,17.30
2018-04-22T07:53:07.400Z,16.60
2018-04-22T07:55:34.748Z,16.70
2018-04-22T07:58:02.122Z,17.23
2018-04-22T08:00:29.470Z,16.53
2018-04-22T08:02:56.891Z,17.40
2018-04-22T08:05:24.230Z,17.40
2018-04-22T08:07:51.630Z,18.40
2018-04-22T08:10:18.985Z,16.97
2018-04-22T08:12:46.357Z,18.30
2018-04-22T08:15:13.705Z,16.40
2018-04-22T08:17:41.087Z,19.20
2018-04-22T08:20:08.434Z,32.47
2018-04-22T08:22:35.803Z,19.47
2018-04-22T08:25:03.176Z,17.60
2018-04-22T08:27:30.558Z,18.90
2018-04-22T08:29:57.896Z,17.70
2018-04-22T08:32:25.259Z,17.10
2018-04-22T08:34:52.601Z,15.17
2018-04-22T08:37:19.965Z,16.33
2018-04-22T08:39:47.323Z,16.23
2018-04-22T08:42:14.675Z,17.40
2018-04-22T08:44:42.046Z,15.67
2018-04-22T08:47:09.414Z,16.30
2018-04-22T08:49:36.785Z,16.83
2018-04-22T08:52:04.132Z,15.90
2018-04-22T08:54:31.500Z,15.20
2018-04-22T08:56:58.846Z,14.07
2018-04-22T08:59:26.241Z,15.23
2018-04-22T09:01:53.610Z,14.90
2018-04-22T09:04:20.985Z,14.60
2018-04-22T09:06:48.565Z,15.40
2018-04-22T09:09:16.009Z,13.70
2018-04-22T09:11:43.390Z,14.80
2018-04-22T09:14:10.758Z,13.30
2018-04-22T09:16:38.103Z,14.70
2018-04-22T09:19:05.482Z,14.70
2018-04-22T09:21:32.835Z,14.73
2018-04-22T09:24:00.229Z,12.70
2018-04-22T09:26:27.578Z,13.57
2018-04-22T09:28:54.940Z,13.10
2018-04-22T09:31:22.345Z,12.20
2018-04-22T09:33:49.737Z,13.00
2018-04-22T09:36:17.086Z,11.00
2018-04-22T09:38:44.455Z,10.83
2018-04-22T09:41:11.799Z,10.60
2018-04-22T09:43:39.168Z,12.17
2018-04-22T09:46:06.665Z,11.30
2018-04-22T09:48:37.076Z,10.10
2018-04-22T09:53:36.436Z,10.67
2018-04-22T09:56:04.457Z,11.68
2018-04-22T09:58:37.613Z,10.33
2018-04-22T10:01:04.986Z,11.20
2018-04-22T10:03:37.593Z,10.53
2018-04-22T10:06:04.993Z,9.60
2018-04-22T10:08:32.374Z,9.77
2018-04-22T10:11:05.588Z,10.73
2018-04-22T10:13:32.957Z,8.20
2018-04-22T10:18:32.302Z,8.40
2018-04-22T10:20:59.774Z,9.20
2018-04-22T10:23:27.110Z,8.37
2018-04-22T10:25:59.290Z,8.33
2018-04-22T10:28:26.926Z,7.80
2018-04-22T10:30:54.287Z,9.27
2018-04-22T10:33:28.627Z,8.70
2018-04-22T10:36:00.572Z,8.10
2018-04-22T10:38:28.531Z,8.40
2018-04-22T10:40:55.900Z,8.60
2018-04-22T10:43:28.001Z,8.57
2018-04-22T10:45:55.808Z,8.00
2018-04-22T10:48:23.177Z,7.53
2018-04-22T10:50:56.303Z,7.67
2018-04-22T10:53:23.635Z,8.37
2018-04-22T10:58:53.526Z,7.80
2018-04-22T11:01:20.894Z,7.70
2018-04-22T11:03:48.256Z,6.10
2018-04-22T11:06:15.617Z,6.87
2018-04-22T11:08:42.962Z,7.10
2018-04-22T11:11:10.333Z,7.00
2018-04-22T11:13:37.694Z,7.37
2018-04-22T11:16:05.133Z,6.43
2018-04-22T11:18:32.501Z,7.10
2018-04-22T11:20:59.864Z,6.83
2018-04-22T11:23:27.220Z,6.90
2018-04-22T11:25:54.578Z,6.10
2018-04-22T11:28:21.921Z,5.10
2018-04-22T11:30:49.274Z,5.13
2018-04-22T11:33:16.611Z,5.57
2018-04-22T11:35:44.005Z,6.30
2018-04-22T11:38:11.336Z,5.53
2018-04-22T11:40:38.689Z,6.00
2018-04-22T11:43:06.018Z,5.90
2018-04-22T11:45:33.424Z,5.40
2018-04-22T11:48:00.752Z,4.50
2018-04-22T11:50:28.116Z,3.47
2018-04-22T11:52:55.461Z,3.10
2018-04-22T11:55:22.816Z,4.00
2018-04-22T11:57:50.144Z,4.03
2018-04-22T12:00:17.507Z,4.13
2018-04-22T12:02:44.879Z,3.97
2018-04-22T12:05:12.234Z,3.90
2018-04-22T12:07:39.570Z,4.70
2018-04-22T12:10:06.944Z,4.17
2018-04-22T12:12:34.285Z,5.00
2018-04-22T12:15:01.645Z,5.03
2018-04-22T12:17:29.007Z,3.77
2018-04-22T12:19:56.421Z,3.90
2018-04-22T12:22:23.768Z,4.73
2018-04-22T12:24:51.129Z,4.13
2018-04-22T12:27:18.518Z,3.90
2018-04-22T12:29:45.864Z,4.80
2018-04-22T12:32:13.224Z,3.77
2018-04-22T12:34:40.598Z,5.20
2018-04-22T12:37:07.953Z,4.30
2018-04-22T12:39:35.285Z,4.67
2018-04-22T12:42:02.658Z,5.00
2018-04-22T12:44:29.994Z,5.10
2018-04-22T12:46:57.355Z,4.27
2018-04-22T12:49:24.689Z,4.47
2018-04-22T12:51:52.044Z,4.47
2018-04-22T12:54:19.381Z,4.93
2018-04-22T12:56:46.745Z,3.80
2018-04-22T12:59:14.086Z,3.33
2018-04-22T13:01:41.447Z,3.37
2018-04-22T13:04:08.780Z,3.53
2018-04-22T13:06:36.138Z,3.73
2018-04-22T13:09:03.477Z,3.30
2018-04-22T13:11:30.863Z,4.30
2018-04-22T13:13:58.217Z,4.53
2018-04-22T13:16:25.619Z,4.00
2018-04-22T13:18:52.936Z,4.80
2018-04-22T13:21:20.370Z,3.93
2018-04-22T13:23:47.702Z,3.90
2018-04-22T13:26:15.058Z,3.87
2018-04-22T13:28:42.380Z,3.47
2018-04-22T13:31:09.733Z,3.50
2018-04-22T13:33:37.065Z,4.60
2018-04-22T13:36:04.426Z,4.00
2018-04-22T13:38:31.770Z,3.73
2018-04-22T13:40:59.128Z,3.50
2018-04-22T13:43:26.467Z,3.50
2018-04-22T13:45:53.834Z,4.03
2018-04-22T13:48:21.199Z,3.80
2018-04-22T13:50:48.560Z,3.80
2018-04-22T13:53:15.887Z,4.10
2018-04-22T13:55:43.258Z,4.53
2018-04-22T13:58:10.583Z,4.27
2018-04-22T14:00:37.910Z,3.40
2018-04-22T14:03:05.288Z,4.20
2018-04-22T14:05:32.621Z,2.97
2018-04-22T14:08:00.021Z,3.33
2018-04-22T14:10:27.365Z,3.90
2018-04-22T14:12:54.728Z,3.60
2018-04-22T14:15:22.075Z,3.40
2018-04-22T14:17:49.453Z,3.00
2018-04-22T14:20:16.787Z,4.10
2018-04-22T14:22:44.161Z,3.70
2018-04-22T14:25:11.572Z,3.47
2018-04-22T14:27:38.888Z,4.20
2018-04-22T14:30:06.221Z,3.77
2018-04-22T14:32:33.597Z,3.40
2018-04-22T14:35:00.929Z,3.33
2018-04-22T14:37:28.291Z,3.60
2018-04-22T14:39:55.623Z,3.77
2018-04-22T14:42:22.985Z,3.83
2018-04-22T14:44:56.059Z,4.00
2018-04-22T14:47:23.421Z,3.27
2018-04-22T14:49:50.746Z,3.93
2018-04-22T14:52:18.107Z,3.47
2018-04-22T14:54:45.449Z,3.73
2018-04-22T14:57:12.808Z,3.10
2018-04-22T14:59:40.275Z,3.53
2018-04-22T15:02:07.635Z,3.10
2018-04-22T15:04:34.969Z,4.10
2018-04-22T15:07:02.326Z,4.10
2018-04-22T15:09:29.685Z,3.43
2018-04-22T15:11:57.192Z,4.13
2018-04-22T15:14:24.577Z,3.80
2018-04-22T15:16:52.068Z,4.37
2018-04-22T15:19:19.605Z,3.17
2018-04-22T15:21:46.935Z,3.53
2018-04-22T15:24:14.513Z,4.00
2018-04-22T15:26:41.962Z,4.00
2018-04-22T15:29:09.346Z,3.50
2018-04-22T15:31:36.688Z,3.53
2018-04-22T15:34:04.050Z,3.20
2018-04-22T15:36:31.391Z,3.87
2018-04-22T15:38:58.741Z,4.13
2018-04-22T15:41:26.075Z,4.00
2018-04-22T15:43:53.434Z,3.50
2018-04-22T15:46:20.783Z,3.93
2018-04-22T15:48:48.142Z,3.53
2018-04-22T15:51:15.467Z,4.03
2018-04-22T15:53:42.826Z,4.27
2018-04-22T15:56:10.189Z,4.30
2018-04-22T15:58:37.551Z,3.90
2018-04-22T16:01:04.891Z,4.53
2018-04-22T16:03:32.250Z,3.93
2018-04-22T16:05:59.596Z,3.90
2018-04-22T16:08:26.954Z,3.97
2018-04-22T16:10:54.298Z,4.57
2018-04-22T16:13:21.659Z,3.37
2018-04-22T16:15:48.996Z,4.60
2018-04-22T16:18:16.350Z,3.90
2018-04-22T16:20:43.685Z,4.30
2018-04-22T16:23:11.047Z,4.27
2018-04-22T16:25:38.395Z,4.03
2018-04-22T16:28:05.720Z,3.90
2018-04-22T16:30:33.081Z,3.40
2018-04-22T16:33:00.420Z,3.93
2018-04-22T16:35:27.792Z,4.90
2018-04-22T16:37:55.151Z,4.60
2018-04-22T16:40:22.507Z,4.83
2018-04-22T16:42:49.858Z,4.53
2018-04-22T16:45:17.202Z,3.63
2018-04-22T16:47:44.535Z,4.57
2018-04-22T16:50:11.892Z,3.77
2018-04-22T16:52:39.230Z,4.80
2018-04-22T16:55:06.813Z,4.17
2018-04-22T16:57:34.146Z,4.37
2018-04-22T17:00:01.508Z,3.90
2018-04-22T17:02:28.869Z,4.10
2018-04-22T17:04:56.234Z,3.93
2018-04-22T17:07:23.575Z,4.90
2018-04-22T17:09:50.948Z,3.90
2018-04-22T17:12:18.280Z,3.47
2018-04-22T17:14:45.634Z,4.63
2018-04-22T17:17:12.960Z,4.53
2018-04-22T17:19:40.315Z,4.03
2018-04-22T17:22:07.642Z,5.07
2018-04-22T17:24:35.001Z,4.87
2018-04-22T17:27:02.338Z,4.53
2018-04-22T17:29:29.697Z,3.67
2018-04-22T17:31:57.033Z,4.43
2018-04-22T17:34:24.390Z,4.30
2018-04-22T17:36:51.730Z,4.07
2018-04-22T17:39:19.102Z,5.27
2018-04-22T17:41:46.433Z,4.17
2018-04-22T17:44:13.849Z,4.93
2018-04-22T17:46:41.162Z,4.97
2018-04-22T17:49:08.526Z,4.10
2018-04-22T17:51:35.861Z,4.40
2018-04-22T17:54:03.190Z,4.80
2018-04-22T17:56:30.552Z,5.00
2018-04-22T17:58:58.001Z,4.00
2018-04-22T18:01:25.519Z,5.10
2018-04-22T18:03:52.862Z,4.90
2018-04-22T18:06:20.224Z,4.80
2018-04-22T18:08:47.581Z,5.20
2018-04-22T18:11:14.970Z,5.73
2018-04-22T18:13:42.298Z,4.10
2018-04-22T18:16:09.657Z,4.20
2018-04-22T18:18:37.003Z,4.80
2018-04-22T18:21:04.367Z,5.80
2018-04-22T18:23:31.702Z,4.10
2018-04-22T18:25:59.072Z,4.73
2018-04-22T18:28:26.407Z,4.40
2018-04-22T18:30:53.795Z,4.90
2018-04-22T18:33:21.143Z,5.07
2018-04-22T18:35:48.507Z,5.27
2018-04-22T18:38:15.841Z,4.43
2018-04-22T18:40:43.199Z,5.17
2018-04-22T18:43:10.538Z,5.23
2018-04-22T18:45:37.914Z,4.90
2018-04-22T18:48:05.266Z,4.50
2018-04-22T18:50:32.624Z,3.60
2018-04-22T18:52:59.949Z,4.90
2018-04-22T18:55:27.321Z,10.67
2018-04-22T18:57:54.664Z,5.33
2018-04-22T19:00:22.027Z,4.50
2018-04-22T19:02:49.363Z,4.23
2018-04-22T19:05:16.821Z,4.33
2018-04-22T19:07:44.090Z,4.10
2018-04-22T19:10:11.465Z,4.73
2018-04-22T19:12:38.804Z,3.83
2018-04-22T19:15:06.184Z,4.17
2018-04-22T19:17:33.516Z,5.40
2018-04-22T19:20:00.860Z,4.50
2018-04-22T19:22:28.246Z,4.70
2018-04-22T19:24:55.614Z,4.47
2018-04-22T19:27:22.973Z,4.80
2018-04-22T19:29:50.304Z,4.77
2018-04-22T19:32:17.665Z,4.70
2018-04-22T19:34:45.059Z,4.70
2018-04-22T19:37:12.452Z,5.10
2018-04-22T19:39:39.793Z,5.00
2018-04-22T19:42:07.150Z,4.60
2018-04-22T19:44:34.482Z,5.70
2018-04-22T19:47:02.318Z,4.53
2018-04-22T19:49:29.650Z,4.57
2018-04-22T19:51:57.010Z,5.60
2018-04-22T19:54:24.344Z,5.93
2018-04-22T19:56:51.699Z,4.00
2018-04-22T19:59:19.054Z,5.77
2018-04-22T20:01:46.422Z,5.27
2018-04-22T20:04:13.757Z,4.97
2018-04-22T20:06:41.113Z,5.43
2018-04-22T20:09:08.446Z,4.50
2018-04-22T20:11:35.810Z,4.87
2018-04-22T20:14:03.142Z,4.47
2018-04-22T20:16:30.502Z,4.13
2018-04-22T20:18:57.844Z,4.90
2018-04-22T20:21:25.219Z,3.77
2018-04-22T20:23:52.557Z,4.73
2018-04-22T20:26:19.929Z,4.10
2018-04-22T20:28:47.265Z,3.70
2018-04-22T20:31:14.634Z,4.37
2018-04-22T20:33:41.997Z,4.00
2018-04-22T20:36:09.362Z,3.70
2018-04-22T20:38:36.700Z,3.07
2018-04-22T20:41:04.059Z,3.37
2018-04-22T20:43:31.386Z,3.67
2018-04-22T20:45:58.763Z,3.37
2018-04-22T20:48:26.098Z,3.40
2018-04-22T20:50:53.427Z,3.57
2018-04-22T20:53:20.794Z,3.80
2018-04-22T20:55:48.130Z,3.00
2018-04-22T20:58:15.483Z,3.10
2018-04-22T21:00:42.808Z,3.20
2018-04-22T21:03:10.197Z,3.70
2018-04-22T21:05:37.530Z,3.90
2018-04-22T21:08:04.891Z,3.50
2018-04-22T21:10:32.222Z,3.77
2018-04-22T21:12:59.572Z,4.20
2018-04-22T21:15:26.905Z,3.40
2018-04-22T21:17:54.257Z,3.67
2018-04-22T21:20:21.582Z,3.40
2018-04-22T21:22:48.936Z,3.40
2018-04-22T21:25:16.272Z,3.47
2018-04-22T21:27:43.634Z,3.27
2018-04-22T21:30:10.977Z,3.57
2018-04-22T21:32:38.343Z,2.80
2018-04-22T21:35:05.682Z,3.87
2018-04-22T21:37:33.038Z,3.03
2018-04-22T21:40:00.374Z,3.20
2018-04-22T21:42:27.730Z,3.17
2018-04-22T21:44:55.057Z,2.90
2018-04-22T21:47:22.412Z,3.20
2018-04-22T21:49:49.737Z,2.77
2018-04-22T21:52:17.091Z,3.80
2018-04-22T21:54:44.421Z,3.70
2018-04-22T21:57:11.780Z,3.33
2018-04-22T21:59:39.111Z,2.93
2018-04-22T22:02:06.494Z,3.10
2018-04-22T22:04:33.829Z,3.50
2018-04-22T22:07:01.156Z,3.27
2018-04-22T22:09:28.522Z,3.63
2018-04-22T22:11:55.845Z,3.20
2018-04-22T22:14:23.206Z,3.80
2018-04-22T22:16:50.547Z,3.20
2018-04-22T22:19:17.896Z,3.20
2018-04-22T22:21:45.237Z,3.23
2018-04-22T22:24:12.595Z,3.30
2018-04-22T22:26:39.939Z,3.10
2018-04-22T22:29:07.298Z,4.00
2018-04-22T22:31:34.628Z,5.73
2018-04-22T22:34:01.987Z,3.57
2018-04-22T22:36:29.318Z,3.13
2018-04-22T22:38:56.680Z,2.87
2018-04-22T22:41:24.007Z,3.17
2018-04-22T22:43:51.367Z,2.87
2018-04-22T22:46:18.719Z,3.30
2018-04-22T22:48:46.084Z,3.07
2018-04-22T22:51:13.419Z,3.23
2018-04-22T22:53:40.806Z,3.37
2018-04-22T22:56:08.150Z,3.23
2018-04-22T22:58:35.510Z,4.10
2018-04-22T23:01:02.851Z,3.10
2018-04-22T23:03:30.211Z,3.37
2018-04-22T23:05:57.541Z,3.13
2018-04-22T23:08:24.897Z,3.33
2018-04-22T23:10:52.231Z,3.70
2018-04-22T23:13:19.615Z,3.97
2018-04-22T23:15:46.949Z,3.03
2018-04-22T23:18:14.297Z,3.70
2018-04-22T23:20:42.543Z,3.53
2018-04-22T23:23:09.903Z,3.60
2018-04-22T23:25:37.242Z,3.30
2018-04-22T23:28:04.583Z,3.67
2018-04-22T23:30:31.935Z,4.67
2018-04-22T23:32:59.271Z,4.03
2018-04-22T23:35:26.624Z,3.70
2018-04-22T23:37:53.957Z,2.77
2018-04-22T23:40:21.318Z,3.63
2018-04-22T23:42:48.661Z,3.20
2018-04-22T23:45:16.048Z,3.77
2018-04-22T23:47:43.384Z,3.17
2018-04-22T23:50:10.740Z,4.63
2018-04-22T23:52:38.090Z,3.00
2018-04-22T23:55:05.445Z,3.33
2018-04-22T23:57:32.839Z,3.57
